createdAt,value
2022-12-06T00:00:36.473Z,51.63
2022-12-06T00:03:39.468Z,51.15
2022-12-06T00:06:44.753Z,51.38
2022-12-06T00:09:47.357Z,51.17
2022-12-06T00:12:50.020Z,51.06
2022-12-06T00:15:52.674Z,51.25
2022-12-06T00:18:55.410Z,51.18
2022-12-06T00:21:59.419Z,51.25
2022-12-06T00:25:02.080Z,51.09
2022-12-06T00:28:04.876Z,51.02
2022-12-06T00:31:08.314Z,51.26
2022-12-06T00:34:10.985Z,50.80
2022-12-06T00:37:14.991Z,51.29
2022-12-06T00:40:17.706Z,50.91
2022-12-06T00:43:20.347Z,51.14
2022-12-06T00:46:24.184Z,51.04
2022-12-06T00:49:26.867Z,50.73
2022-12-06T00:52:30.890Z,51.18
2022-12-06T00:55:33.496Z,51.13
2022-12-06T00:58:36.135Z,51.07
2022-12-06T01:01:38.828Z,50.95
2022-12-06T01:04:41.461Z,51.33
2022-12-06T01:07:45.529Z,51.32
2022-12-06T01:10:52.765Z,50.85
2022-12-06T01:13:55.158Z,51.08
2022-12-06T01:16:57.788Z,51.17
2022-12-06T01:20:00.683Z,51.27
2022-12-06T01:23:04.761Z,51.09
2022-12-06T01:26:07.545Z,50.91
2022-12-06T01:29:10.579Z,51.13
2022-12-06T01:32:13.150Z,51.24
2022-12-06T01:35:15.783Z,50.80
2022-12-06T01:38:19.629Z,50.75
2022-12-06T01:41:22.973Z,50.81
2022-12-06T01:44:43.177Z,50.57
2022-12-06T01:47:45.753Z,50.73
2022-12-06T01:50:48.254Z,50.71
2022-12-06T01:53:52.089Z,50.50
2022-12-06T01:56:55.017Z,50.69
2022-12-06T01:59:57.737Z,50.58
2022-12-06T02:03:00.636Z,50.69
2022-12-06T02:06:04.181Z,50.50
2022-12-06T02:09:08.680Z,50.63
2022-12-06T02:12:12.806Z,50.88
2022-12-06T02:15:15.393Z,50.88
2022-12-06T02:18:20.424Z,50.99
2022-12-06T02:21:27.231Z,51.08
2022-12-06T02:24:59.968Z,50.51
2022-12-06T02:28:22.552Z,50.56
2022-12-06T02:31:27.605Z,50.77
2022-12-06T02:34:31.970Z,50.55
2022-12-06T02:37:36.311Z,50.41
2022-12-06T02:40:40.621Z,50.34
2022-12-06T02:43:44.730Z,50.64
2022-12-06T02:46:48.662Z,50.52
2022-12-06T02:49:54.541Z,50.35
2022-12-06T02:52:57.036Z,50.50
2022-12-06T02:55:59.542Z,50.78
2022-12-06T02:59:02.017Z,50.26
2022-12-06T03:02:07.093Z,50.27
2022-12-06T03:05:11.507Z,50.47
2022-12-06T03:08:16.684Z,50.39
2022-12-06T03:11:19.269Z,50.17
2022-12-06T03:14:23.361Z,50.21
2022-12-06T03:17:30.382Z,50.51
2022-12-06T03:20:42.423Z,50.26
2022-12-06T03:23:46.691Z,50.14
2022-12-06T03:26:49.944Z,50.22
2022-12-06T03:29:54.554Z,50.35
2022-12-06T03:32:58.389Z,50.09
2022-12-06T03:36:00.885Z,50.43
2022-12-06T03:39:04.525Z,50.06
2022-12-06T03:42:07.294Z,49.93
2022-12-06T03:45:11.575Z,50.30
2022-12-06T03:48:16.197Z,49.87
2022-12-06T03:51:20.469Z,50.05
2022-12-06T03:54:23.010Z,50.29
2022-12-06T03:57:25.614Z,50.20
2022-12-06T04:00:28.167Z,50.29
2022-12-06T04:03:32.156Z,50.09
2022-12-06T04:06:34.742Z,50.17
2022-12-06T04:10:02.887Z,50.16
2022-12-06T04:13:06.173Z,50.01
2022-12-06T04:16:29.046Z,50.32
2022-12-06T04:19:31.957Z,50.17
2022-12-06T04:22:52.123Z,50.11
2022-12-06T04:25:54.658Z,49.72
2022-12-06T04:29:14.804Z,49.89
2022-12-06T04:32:34.945Z,50.04
2022-12-06T04:35:56.637Z,50.09
2022-12-06T04:38:59.185Z,49.99
2022-12-06T04:42:19.090Z,49.85
2022-12-06T04:45:21.622Z,49.89
2022-12-06T04:48:24.172Z,49.88
2022-12-06T04:51:28.115Z,49.50
2022-12-06T04:54:31.207Z,49.91
2022-12-06T04:57:33.705Z,49.42
2022-12-06T05:00:36.354Z,49.61
2022-12-06T05:03:44.177Z,49.67
2022-12-06T05:06:48.472Z,49.43
2022-12-06T05:09:50.989Z,49.50
2022-12-06T05:12:53.533Z,49.45
2022-12-06T05:15:57.048Z,49.58
2022-12-06T05:18:59.600Z,49.41
2022-12-06T05:22:03.523Z,49.72
2022-12-06T05:25:06.469Z,49.57
2022-12-06T05:28:09.787Z,49.71
2022-12-06T05:31:12.557Z,49.69
2022-12-06T05:34:15.088Z,49.56
2022-12-06T05:37:18.961Z,49.49
2022-12-06T05:40:21.518Z,49.70
2022-12-06T05:43:24.002Z,49.53
2022-12-06T05:46:26.543Z,49.28
2022-12-06T05:49:29.169Z,49.12
2022-12-06T05:52:33.038Z,49.53
2022-12-06T05:55:35.583Z,49.17
2022-12-06T05:58:38.156Z,49.48
2022-12-06T06:01:40.748Z,49.63
2022-12-06T06:04:43.313Z,49.39
2022-12-06T06:07:47.468Z,49.46
2022-12-06T06:10:50.146Z,49.23
2022-12-06T06:13:54.383Z,49.04
2022-12-06T06:16:56.987Z,49.27
2022-12-06T06:19:59.667Z,49.29
2022-12-06T06:23:03.649Z,49.23
2022-12-06T06:26:08.225Z,49.28
2022-12-06T06:29:10.735Z,49.37
2022-12-06T06:32:13.680Z,48.91
2022-12-06T06:35:16.324Z,49.02
2022-12-06T06:38:20.174Z,49.26
2022-12-06T06:41:22.719Z,49.01
2022-12-06T06:44:25.271Z,49.13
2022-12-06T06:47:27.774Z,49.11
2022-12-06T06:50:30.277Z,49.13
2022-12-06T06:53:34.115Z,48.94
2022-12-06T06:56:36.617Z,48.93
2022-12-06T06:59:39.164Z,49.08
2022-12-06T07:02:41.774Z,48.96
2022-12-06T07:05:44.545Z,49.68
2022-12-06T07:08:48.572Z,49.47
2022-12-06T07:11:51.122Z,49.47
2022-12-06T07:14:53.672Z,49.54
2022-12-06T07:17:56.168Z,49.56
2022-12-06T07:20:59.758Z,49.56
2022-12-06T07:24:03.599Z,49.70
2022-12-06T07:27:06.152Z,49.48
2022-12-06T07:30:13.216Z,49.55
2022-12-06T07:33:18.356Z,49.25
2022-12-06T07:36:22.706Z,49.35
2022-12-06T07:39:26.977Z,49.57
2022-12-06T07:42:46.988Z,49.14
2022-12-06T07:45:49.525Z,49.70
2022-12-06T07:48:52.069Z,49.32
2022-12-06T07:51:54.698Z,49.07
2022-12-06T07:54:58.542Z,49.42
2022-12-06T07:58:01.083Z,49.12
2022-12-06T08:01:04.243Z,49.05
2022-12-06T08:04:06.958Z,49.43
2022-12-06T08:07:09.497Z,49.48
2022-12-06T08:10:13.489Z,49.46
2022-12-06T08:13:16.029Z,49.12
2022-12-06T08:16:18.675Z,49.04
2022-12-06T08:19:21.368Z,49.28
2022-12-06T08:22:23.919Z,49.45
2022-12-06T08:25:27.755Z,49.70
2022-12-06T08:28:30.582Z,49.57
2022-12-06T08:31:34.536Z,49.35
2022-12-06T08:34:37.085Z,49.48
2022-12-06T08:37:39.570Z,49.46
2022-12-06T08:40:43.463Z,49.29
2022-12-06T08:43:45.973Z,49.71
2022-12-06T08:46:48.734Z,49.25
2022-12-06T08:49:51.407Z,49.74
2022-12-06T08:52:54.130Z,49.53
2022-12-06T08:56:02.574Z,49.47
2022-12-06T08:59:07.005Z,49.39
2022-12-06T09:02:10.886Z,49.41
2022-12-06T09:05:13.516Z,49.35
2022-12-06T09:08:16.156Z,49.57
2022-12-06T09:11:20.171Z,49.42
2022-12-06T09:14:22.973Z,49.21
2022-12-06T09:17:25.481Z,49.27
2022-12-06T09:20:27.971Z,49.34
2022-12-06T09:23:30.510Z,49.43
2022-12-06T09:26:34.428Z,49.35
2022-12-06T09:29:40.520Z,49.33
2022-12-06T09:32:43.491Z,49.66
2022-12-06T09:35:46.034Z,49.22
2022-12-06T09:38:49.033Z,49.30
2022-12-06T09:42:12.109Z,49.73
2022-12-06T09:45:26.099Z,49.42
2022-12-06T09:48:54.299Z,49.18
2022-12-06T09:52:13.727Z,49.06
2022-12-06T09:55:22.142Z,49.46
2022-12-06T09:58:33.054Z,49.38
2022-12-06T10:01:42.975Z,49.57
2022-12-06T10:04:57.210Z,49.44
2022-12-06T10:08:04.295Z,49.31
2022-12-06T10:11:09.705Z,49.06
2022-12-06T10:14:20.184Z,49.39
2022-12-06T10:17:25.878Z,49.71
2022-12-06T10:20:31.419Z,49.30
2022-12-06T10:23:40.527Z,49.07
2022-12-06T10:26:46.596Z,49.28
2022-12-06T10:29:55.669Z,49.33
2022-12-06T10:33:05.208Z,48.97
2022-12-06T10:36:08.733Z,49.33
2022-12-06T10:39:16.381Z,49.08
2022-12-06T10:42:23.594Z,49.29
2022-12-06T10:45:46.003Z,49.26
2022-12-06T10:48:52.098Z,49.10
2022-12-06T10:51:57.150Z,49.38
2022-12-06T10:55:05.616Z,49.38
2022-12-06T10:58:10.801Z,49.42
2022-12-06T11:01:16.925Z,49.25
2022-12-06T11:04:22.263Z,49.06
2022-12-06T11:07:25.352Z,49.12
2022-12-06T11:10:28.671Z,49.42
2022-12-06T11:13:35.236Z,49.08
2022-12-06T11:16:40.856Z,48.99
2022-12-06T11:19:44.747Z,49.36
2022-12-06T11:22:49.303Z,49.20
2022-12-06T11:26:02.572Z,49.19
2022-12-06T11:29:06.299Z,48.82
2022-12-06T11:32:10.228Z,48.83
2022-12-06T11:35:13.590Z,49.12
2022-12-06T11:38:16.133Z,48.95
2022-12-06T11:41:20.676Z,49.30
2022-12-06T11:44:25.477Z,49.28
2022-12-06T11:47:29.405Z,48.81
2022-12-06T11:50:32.083Z,49.14
2022-12-06T11:53:38.024Z,49.16
2022-12-06T11:56:40.563Z,48.82
2022-12-06T11:59:43.144Z,49.06
2022-12-06T12:02:48.018Z,48.92
2022-12-06T12:05:50.663Z,49.16
2022-12-06T12:08:55.450Z,48.92
2022-12-06T12:12:01.974Z,48.95
2022-12-06T12:15:05.038Z,49.16
2022-12-06T12:18:21.859Z,49.10
2022-12-06T12:21:40.856Z,49.05
2022-12-06T12:28:24.493Z,48.81
2022-12-06T12:31:27.234Z,49.28
2022-12-06T12:34:31.520Z,49.36
2022-12-06T12:37:34.047Z,49.31
2022-12-06T12:40:37.856Z,49.54
2022-12-06T12:43:40.427Z,49.36
2022-12-06T12:46:43.516Z,49.24
2022-12-06T12:49:59.338Z,49.30
2022-12-06T12:53:01.884Z,49.47
2022-12-06T12:56:08.153Z,49.22
2022-12-06T12:59:14.575Z,49.54
2022-12-06T13:02:21.691Z,49.02
2022-12-06T13:05:35.616Z,49.22
2022-12-06T13:08:39.362Z,49.11
2022-12-06T13:11:44.098Z,49.02
2022-12-06T13:14:51.965Z,49.44
2022-12-06T13:17:59.633Z,49.52
2022-12-06T13:21:07.912Z,49.47
2022-12-06T13:24:16.378Z,49.03
2022-12-06T13:27:19.825Z,49.49
2022-12-06T13:30:23.373Z,48.92
2022-12-06T13:33:26.726Z,49.54
2022-12-06T13:36:32.274Z,49.12
2022-12-06T13:39:39.673Z,49.41
2022-12-06T13:42:45.393Z,49.02
2022-12-06T13:45:48.388Z,49.51
2022-12-06T13:48:51.661Z,49.43
2022-12-06T13:51:55.581Z,49.28
2022-12-06T13:54:58.200Z,49.54
2022-12-06T13:58:34.246Z,49.34
2022-12-06T14:01:40.651Z,49.41
2022-12-06T14:04:43.381Z,49.14
2022-12-06T14:07:47.396Z,49.74
2022-12-06T14:10:50.001Z,49.29
2022-12-06T14:14:01.971Z,49.38
2022-12-06T14:17:05.893Z,49.52
2022-12-06T14:20:18.817Z,49.14
2022-12-06T14:23:27.853Z,49.47
2022-12-06T14:26:31.804Z,49.40
2022-12-06T14:29:34.412Z,49.29
2022-12-06T14:32:39.010Z,49.40
2022-12-06T14:35:41.777Z,49.56
2022-12-06T14:38:51.105Z,49.57
2022-12-06T14:42:11.894Z,49.13
2022-12-06T14:45:15.714Z,49.58
2022-12-06T14:48:18.280Z,49.28
2022-12-06T14:51:23.373Z,49.57
2022-12-06T14:54:42.269Z,49.59
2022-12-06T14:57:46.241Z,49.37
2022-12-06T15:00:50.445Z,49.23
2022-12-06T15:03:59.721Z,49.27
2022-12-06T15:07:02.429Z,49.28
2022-12-06T15:10:34.593Z,49.60
2022-12-06T15:13:37.201Z,49.61
2022-12-06T15:16:39.931Z,49.51
2022-12-06T15:19:45.957Z,49.38
2022-12-06T15:22:48.480Z,49.25
2022-12-06T15:25:52.458Z,49.55
2022-12-06T15:28:54.985Z,49.45
2022-12-06T15:31:57.577Z,49.69
2022-12-06T15:35:00.164Z,49.83
2022-12-06T15:38:02.872Z,49.31
2022-12-06T15:41:06.962Z,49.40
2022-12-06T15:44:11.509Z,49.21
2022-12-06T15:47:14.088Z,49.67
2022-12-06T15:50:16.785Z,49.40
2022-12-06T15:53:23.117Z,49.25
2022-12-06T15:56:29.268Z,49.71
2022-12-06T15:59:31.858Z,49.70
2022-12-06T16:02:35.007Z,49.66
2022-12-06T16:05:37.611Z,49.44
2022-12-06T16:08:40.178Z,49.58
2022-12-06T16:11:44.189Z,49.70
2022-12-06T16:14:47.005Z,49.30
2022-12-06T16:17:49.540Z,49.57
2022-12-06T16:20:52.105Z,49.30
2022-12-06T16:24:13.012Z,49.48
2022-12-06T16:27:17.953Z,49.75
2022-12-06T16:30:31.822Z,49.24
2022-12-06T16:33:34.407Z,49.48
2022-12-06T16:36:37.164Z,49.33
2022-12-06T16:39:39.706Z,49.78
2022-12-06T16:42:43.612Z,49.55
2022-12-06T16:45:46.793Z,49.42
2022-12-06T16:48:55.313Z,49.79
2022-12-06T16:51:58.068Z,49.68
2022-12-06T16:55:00.832Z,49.40
2022-12-06T16:58:04.934Z,49.43
2022-12-06T17:01:23.674Z,49.25
2022-12-06T17:04:26.729Z,49.60
2022-12-06T17:07:29.344Z,49.68
2022-12-06T17:10:31.917Z,49.35
2022-12-06T17:13:35.807Z,49.55
2022-12-06T17:16:38.872Z,49.78
2022-12-06T17:19:42.113Z,49.70
2022-12-06T17:22:44.661Z,49.43
2022-12-06T17:25:47.253Z,49.83
2022-12-06T17:28:51.149Z,49.85
2022-12-06T17:31:53.914Z,49.18
2022-12-06T17:34:56.529Z,49.59
2022-12-06T17:38:00.851Z,49.27
2022-12-06T17:41:24.192Z,49.25
2022-12-06T17:44:28.210Z,49.69
2022-12-06T17:47:31.174Z,49.71
2022-12-06T17:50:34.045Z,49.31
2022-12-06T17:53:36.606Z,49.75
2022-12-06T17:56:39.968Z,49.50
2022-12-06T17:59:44.051Z,49.34
2022-12-06T18:02:48.592Z,49.39
2022-12-06T18:05:51.398Z,49.19
2022-12-06T18:08:54.021Z,49.47
2022-12-06T18:11:56.766Z,49.54
2022-12-06T18:15:01.176Z,49.04
2022-12-06T18:18:03.921Z,49.50
2022-12-06T18:21:06.755Z,49.58
2022-12-06T18:24:21.494Z,49.47
2022-12-06T18:27:24.941Z,49.27
2022-12-06T18:30:28.870Z,49.68
2022-12-06T18:33:32.254Z,49.55
2022-12-06T18:36:34.841Z,49.33
2022-12-06T18:39:37.411Z,49.77
2022-12-06T18:42:39.936Z,49.81
2022-12-06T18:45:43.905Z,49.40
2022-12-06T18:48:48.131Z,49.69
2022-12-06T18:51:50.674Z,49.27
2022-12-06T18:54:53.222Z,49.73
2022-12-06T18:57:55.766Z,49.58
2022-12-06T19:00:59.694Z,49.44
2022-12-06T19:04:03.047Z,49.45
2022-12-06T19:07:05.774Z,49.74
2022-12-06T19:10:09.672Z,49.16
2022-12-06T19:13:12.276Z,49.57
2022-12-06T19:16:16.372Z,49.32
2022-12-06T19:19:20.110Z,49.57
2022-12-06T19:22:22.654Z,49.58
2022-12-06T19:25:25.176Z,49.65
2022-12-06T19:28:27.768Z,49.56
2022-12-06T19:31:31.656Z,49.25
2022-12-06T19:34:34.282Z,49.40
2022-12-06T19:37:37.233Z,49.33
2022-12-06T19:40:41.987Z,49.43
2022-12-06T19:44:01.992Z,49.13
2022-12-06T19:47:06.002Z,49.05
2022-12-06T19:50:09.804Z,49.17
2022-12-06T19:53:12.374Z,49.46
2022-12-06T19:56:16.116Z,49.32
2022-12-06T19:59:18.676Z,49.22
2022-12-06T20:02:22.661Z,49.47
2022-12-06T20:05:25.253Z,49.13
2022-12-06T20:08:27.802Z,49.47
2022-12-06T20:11:47.869Z,48.92
2022-12-06T20:14:50.464Z,49.09
2022-12-06T20:17:54.444Z,49.04
2022-12-06T20:20:57.135Z,49.16
2022-12-06T20:24:00.178Z,49.52
2022-12-06T20:27:02.821Z,49.55
2022-12-06T20:30:06.530Z,49.25
2022-12-06T20:33:10.461Z,49.33
2022-12-06T20:36:13.271Z,49.06
2022-12-06T20:39:20.274Z,49.09
2022-12-06T20:42:22.883Z,49.20
2022-12-06T20:45:25.434Z,49.66
2022-12-06T20:48:29.352Z,49.18
2022-12-06T20:51:32.453Z,49.40
2022-12-06T20:54:35.115Z,49.33
2022-12-06T20:57:38.226Z,49.15
2022-12-06T21:00:40.813Z,49.07
2022-12-06T21:03:44.699Z,49.43
2022-12-06T21:06:47.275Z,49.55
2022-12-06T21:09:49.881Z,49.79
